createdAt,value
2019-03-09T00:00:48.633Z,7.30
2019-03-09T00:03:18.940Z,7.29
2019-03-09T00:05:49.245Z,7.26
2019-03-09T00:08:19.529Z,7.27
2019-03-09T00:10:49.933Z,7.27
2019-03-09T00:13:20.006Z,7.27
2019-03-09T00:15:50.188Z,7.27
2019-03-09T00:18:20.535Z,7.25
2019-03-09T00:20:50.917Z,7.25
2019-03-09T00:23:33.729Z,7.25
2019-03-09T00:26:24.455Z,7.24
2019-03-09T00:29:03.305Z,7.23
2019-03-09T00:31:40.779Z,7.23
2019-03-09T00:34:10.841Z,7.22
2019-03-09T00:36:41.145Z,7.20
2019-03-09T00:39:11.803Z,7.20
2019-03-09T00:41:42.197Z,7.20
2019-03-09T00:44:12.532Z,7.21
2019-03-09T00:46:42.717Z,7.20
2019-03-09T00:49:12.790Z,7.20
2019-03-09T00:51:43.046Z,7.20
2019-03-09T00:54:15.122Z,7.20
2019-03-09T00:56:45.700Z,7.20
2019-03-09T00:59:15.979Z,7.19
2019-03-09T01:01:46.180Z,7.17
2019-03-09T01:04:16.344Z,7.16
2019-03-09T01:06:46.468Z,7.15
2019-03-09T01:09:16.820Z,7.13
2019-03-09T01:11:47.797Z,7.15
2019-03-09T01:14:17.890Z,7.15
2019-03-09T01:16:48.367Z,7.15
2019-03-09T01:19:18.533Z,7.15
2019-03-09T01:21:48.753Z,7.17
2019-03-09T01:24:19.035Z,7.17
2019-03-09T01:26:49.331Z,7.17
2019-03-09T01:29:19.785Z,7.17
2019-03-09T01:31:50.053Z,7.18
2019-03-09T01:34:20.280Z,7.20
2019-03-09T01:36:50.569Z,7.20
2019-03-09T01:39:20.723Z,7.21
2019-03-09T01:41:51.303Z,7.23
2019-03-09T01:44:21.453Z,7.25
2019-03-09T01:46:51.648Z,7.27
2019-03-09T01:49:21.739Z,7.30
2019-03-09T01:51:52.190Z,7.30
2019-03-09T01:54:22.504Z,7.36
2019-03-09T01:56:52.927Z,7.35
2019-03-09T01:59:23.185Z,7.37
2019-03-09T02:01:53.403Z,7.40
2019-03-09T02:04:23.447Z,7.44
2019-03-09T02:06:53.876Z,7.47
2019-03-09T02:09:24.490Z,7.50
2019-03-09T02:11:54.929Z,7.52
2019-03-09T02:14:25.402Z,7.55
2019-03-09T02:16:55.693Z,7.58
2019-03-09T02:19:26.210Z,7.60
2019-03-09T02:21:56.571Z,7.64
2019-03-09T02:24:26.902Z,7.65
2019-03-09T02:26:57.183Z,7.67
2019-03-09T02:29:27.406Z,7.67
2019-03-09T02:31:57.613Z,7.70
2019-03-09T02:34:27.828Z,7.72
2019-03-09T02:36:58.092Z,7.78
2019-03-09T02:39:36.346Z,7.80
2019-03-09T02:42:06.781Z,7.80
2019-03-09T02:44:37.205Z,7.84
2019-03-09T02:47:07.420Z,7.88
2019-03-09T02:49:37.743Z,7.90
2019-03-09T02:52:08.367Z,7.92
2019-03-09T02:54:38.691Z,7.95
2019-03-09T02:57:08.971Z,7.99
2019-03-09T02:59:39.407Z,8.02
2019-03-09T03:02:25.788Z,8.06
2019-03-09T03:04:56.197Z,8.12
2019-03-09T03:07:26.361Z,8.15
2019-03-09T03:09:56.843Z,8.20
2019-03-09T03:12:26.971Z,8.24
2019-03-09T03:14:57.233Z,8.28
2019-03-09T03:17:27.784Z,8.31
2019-03-09T03:19:57.946Z,8.32
2019-03-09T03:22:28.350Z,8.34
2019-03-09T03:24:58.681Z,8.39
2019-03-09T03:27:29.155Z,8.42
2019-03-09T03:29:59.345Z,8.46
2019-03-09T03:32:33.636Z,8.49
2019-03-09T03:35:04.321Z,8.51
2019-03-09T03:37:34.578Z,8.51
2019-03-09T03:40:05.862Z,8.49
2019-03-09T03:42:36.249Z,8.48
2019-03-09T03:45:07.390Z,8.45
2019-03-09T03:47:37.677Z,8.48
2019-03-09T03:50:07.960Z,8.52
2019-03-09T03:52:38.335Z,8.57
2019-03-09T03:55:08.828Z,8.60
2019-03-09T03:57:38.909Z,8.65
2019-03-09T04:00:10.998Z,8.68
2019-03-09T04:02:41.487Z,8.71
2019-03-09T04:05:11.685Z,8.73
2019-03-09T04:07:42.151Z,8.75
2019-03-09T04:10:12.877Z,8.73
2019-03-09T04:12:43.748Z,8.65
2019-03-09T04:15:14.619Z,8.62
2019-03-09T04:17:45.160Z,8.58
2019-03-09T04:20:15.630Z,8.52
2019-03-09T04:22:45.849Z,8.49
2019-03-09T04:25:16.219Z,8.43
2019-03-09T04:27:46.476Z,8.34
2019-03-09T04:30:16.772Z,8.31
2019-03-09T04:32:52.536Z,8.31
2019-03-09T04:35:30.076Z,8.26
2019-03-09T04:38:00.357Z,8.22
2019-03-09T04:40:30.524Z,8.15
2019-03-09T04:43:00.780Z,8.24
2019-03-09T04:45:31.003Z,8.27
2019-03-09T04:48:01.233Z,8.28
2019-03-09T04:50:31.632Z,8.29
2019-03-09T04:53:02.179Z,8.26
2019-03-09T04:55:32.539Z,8.17
2019-03-09T04:58:03.002Z,8.07
2019-03-09T05:00:35.075Z,8.01
2019-03-09T05:03:05.366Z,7.93
2019-03-09T05:05:35.652Z,7.86
2019-03-09T05:08:12.790Z,7.85
2019-03-09T05:11:00.295Z,7.81
2019-03-09T05:14:02.609Z,7.75
2019-03-09T05:16:32.832Z,7.66
2019-03-09T05:19:03.137Z,7.63
2019-03-09T05:21:33.342Z,7.60
2019-03-09T05:24:03.593Z,7.57
2019-03-09T05:26:36.643Z,7.51
2019-03-09T05:29:06.938Z,7.49
2019-03-09T05:31:40.120Z,7.44
2019-03-09T05:34:10.346Z,7.41
2019-03-09T05:36:41.708Z,7.39
2019-03-09T05:39:12.021Z,7.38
2019-03-09T05:41:42.402Z,7.38
2019-03-09T05:44:12.539Z,7.35
2019-03-09T05:46:42.725Z,7.29
2019-03-09T05:49:12.988Z,7.28
2019-03-09T05:51:43.211Z,7.24
2019-03-09T05:54:13.308Z,7.20
2019-03-09T05:56:43.960Z,7.21
2019-03-09T05:59:14.494Z,7.44
2019-03-09T06:01:45.184Z,7.44
2019-03-09T06:04:15.950Z,7.43
2019-03-09T06:06:46.578Z,7.41
2019-03-09T06:09:17.089Z,7.42
2019-03-09T06:11:47.601Z,7.43
2019-03-09T06:14:18.031Z,7.46
2019-03-09T06:16:48.391Z,7.50
2019-03-09T06:19:18.881Z,7.55
2019-03-09T06:21:49.427Z,7.60
2019-03-09T06:24:20.034Z,7.63
2019-03-09T06:26:50.679Z,7.61
2019-03-09T06:29:22.256Z,7.65
2019-03-09T06:32:46.914Z,7.69
2019-03-09T06:35:17.459Z,7.77
2019-03-09T06:37:55.851Z,7.83
2019-03-09T06:40:26.333Z,7.89
2019-03-09T06:42:56.745Z,7.95
2019-03-09T06:45:27.153Z,7.92
2019-03-09T06:47:57.603Z,7.96
2019-03-09T06:50:28.014Z,7.92
2019-03-09T06:52:58.618Z,7.91
2019-03-09T06:55:31.626Z,7.93
2019-03-09T06:58:02.067Z,7.94
2019-03-09T07:00:36.173Z,7.93
2019-03-09T07:03:07.854Z,7.94
2019-03-09T07:05:38.045Z,7.99
2019-03-09T07:08:08.247Z,8.04
2019-03-09T07:10:40.667Z,8.06
2019-03-09T07:13:11.037Z,8.12
2019-03-09T07:15:44.014Z,8.18
2019-03-09T07:18:32.921Z,8.23
2019-03-09T07:21:03.111Z,8.28
2019-03-09T07:23:33.378Z,8.31
2019-03-09T07:26:03.611Z,8.32
2019-03-09T07:28:33.753Z,8.34
2019-03-09T07:31:04.044Z,8.31
2019-03-09T07:33:34.275Z,8.30
2019-03-09T07:36:04.633Z,8.32
2019-03-09T07:38:34.929Z,8.32
2019-03-09T07:41:05.185Z,8.34
2019-03-09T07:43:35.272Z,8.35
2019-03-09T07:46:05.531Z,8.39
2019-03-09T07:48:35.778Z,8.48
2019-03-09T07:51:06.758Z,8.54
2019-03-09T07:53:37.072Z,8.58
2019-03-09T07:56:07.293Z,8.62
2019-03-09T07:58:37.548Z,8.67
2019-03-09T08:01:08.958Z,8.73
2019-03-09T08:03:41.937Z,8.78
2019-03-09T08:06:12.328Z,8.79
2019-03-09T08:08:42.420Z,8.77
2019-03-09T08:11:12.700Z,8.75
2019-03-09T08:13:43.120Z,8.77
2019-03-09T08:16:13.455Z,8.80
2019-03-09T08:18:45.270Z,8.83
2019-03-09T08:21:15.591Z,8.87
2019-03-09T08:23:45.812Z,8.94
2019-03-09T08:26:16.363Z,8.98
2019-03-09T08:28:46.523Z,9.00
2019-03-09T08:31:16.702Z,9.04
2019-03-09T08:33:46.962Z,9.08
2019-03-09T08:36:17.310Z,9.12
2019-03-09T08:38:47.432Z,9.15
2019-03-09T08:41:17.607Z,9.19
2019-03-09T08:43:47.855Z,9.27
2019-03-09T08:46:18.126Z,9.33
2019-03-09T08:48:48.365Z,9.41
2019-03-09T08:51:18.659Z,9.48
2019-03-09T08:53:48.759Z,9.53
2019-03-09T08:56:19.006Z,9.59
2019-03-09T08:58:49.170Z,9.71
2019-03-09T09:01:19.372Z,9.86
2019-03-09T09:03:49.614Z,10.00
2019-03-09T09:06:29.236Z,10.13
2019-03-09T09:08:59.589Z,10.23
2019-03-09T09:11:30.378Z,10.32
2019-03-09T09:16:29.411Z,10.43
2019-03-09T09:19:01.456Z,10.39
2019-03-09T09:21:33.888Z,10.41
2019-03-09T09:24:04.241Z,10.47
2019-03-09T09:26:34.737Z,10.50
2019-03-09T09:29:05.092Z,10.59
2019-03-09T09:31:35.360Z,10.64
2019-03-09T09:34:05.757Z,10.63
2019-03-09T09:36:36.636Z,10.58
2019-03-09T09:39:09.271Z,10.54
2019-03-09T09:41:39.526Z,10.51
2019-03-09T09:44:09.842Z,10.53
2019-03-09T09:46:40.038Z,10.55
2019-03-09T09:49:10.191Z,10.54
2019-03-09T09:51:40.445Z,10.59
2019-03-09T09:54:10.816Z,10.62
2019-03-09T09:56:41.004Z,10.66
2019-03-09T09:59:11.239Z,10.65
2019-03-09T10:01:41.498Z,10.66
2019-03-09T10:04:11.694Z,10.74
2019-03-09T10:06:41.919Z,10.81
2019-03-09T10:09:16.609Z,10.74
2019-03-09T10:11:46.995Z,10.55
2019-03-09T10:14:17.236Z,10.42
2019-03-09T10:16:50.060Z,10.37
2019-03-09T10:19:20.347Z,10.39
2019-03-09T10:21:50.589Z,10.43
2019-03-09T10:24:20.704Z,10.57
2019-03-09T10:26:50.885Z,10.62
2019-03-09T10:29:21.128Z,10.66
2019-03-09T10:31:51.306Z,10.69
2019-03-09T10:34:21.450Z,10.70
2019-03-09T10:36:51.802Z,10.71
2019-03-09T10:39:22.486Z,10.77
2019-03-09T10:41:52.636Z,10.87
2019-03-09T10:44:22.844Z,10.97
2019-03-09T10:46:53.172Z,11.06
2019-03-09T10:49:23.385Z,11.10
2019-03-09T10:51:53.561Z,11.17
2019-03-09T10:54:23.807Z,11.29
2019-03-09T10:56:54.038Z,11.39
2019-03-09T10:59:24.296Z,11.42
2019-03-09T11:01:54.545Z,11.46
2019-03-09T11:04:27.839Z,11.59
2019-03-09T11:06:56.683Z,11.85
2019-03-09T11:09:26.909Z,12.04
2019-03-09T11:11:57.133Z,11.99
2019-03-09T11:14:27.263Z,11.84
2019-03-09T11:16:57.639Z,11.77
2019-03-09T11:19:28.309Z,11.69
2019-03-09T11:21:58.486Z,11.71
2019-03-09T11:24:28.736Z,11.82
2019-03-09T11:26:58.853Z,11.85
2019-03-09T11:29:29.065Z,11.79
2019-03-09T11:31:59.324Z,11.77
2019-03-09T11:34:29.628Z,11.78
2019-03-09T11:36:59.887Z,11.80
2019-03-09T11:39:30.187Z,11.77
2019-03-09T11:42:00.436Z,11.65
2019-03-09T11:44:30.617Z,11.58
2019-03-09T11:47:01.035Z,11.55
2019-03-09T11:49:31.232Z,11.55
2019-03-09T11:52:01.462Z,11.57
2019-03-09T11:54:31.772Z,11.65
2019-03-09T11:57:02.083Z,11.69
2019-03-09T11:59:32.615Z,11.96
2019-03-09T12:02:02.932Z,11.97
2019-03-09T12:04:33.078Z,11.94
2019-03-09T12:07:03.377Z,11.91
2019-03-09T12:09:33.679Z,11.85
2019-03-09T12:12:04.947Z,11.77
2019-03-09T12:14:35.223Z,11.72
2019-03-09T12:17:12.762Z,11.73
2019-03-09T12:19:37.493Z,11.84
2019-03-09T12:22:07.662Z,11.90
2019-03-09T12:24:37.977Z,12.00
2019-03-09T12:27:08.407Z,11.85
2019-03-09T12:29:38.688Z,11.71
2019-03-09T12:32:09.033Z,11.58
2019-03-09T12:34:39.322Z,11.45
2019-03-09T12:37:09.535Z,11.41
2019-03-09T12:39:39.775Z,11.33
2019-03-09T12:42:09.990Z,11.29
2019-03-09T12:44:40.308Z,11.32
2019-03-09T12:47:10.576Z,11.53
2019-03-09T12:49:40.841Z,11.99
2019-03-09T12:52:11.100Z,12.37
2019-03-09T12:54:41.359Z,12.49
2019-03-09T12:57:11.488Z,12.56
2019-03-09T12:59:43.816Z,12.52
2019-03-09T13:02:14.117Z,12.47
2019-03-09T13:04:44.329Z,12.41
2019-03-09T13:07:14.655Z,12.27
2019-03-09T13:09:44.721Z,12.14
2019-03-09T13:12:14.971Z,12.00
2019-03-09T13:14:45.180Z,11.96
2019-03-09T13:17:15.463Z,11.98
2019-03-09T13:19:45.609Z,11.97
2019-03-09T13:22:15.893Z,11.90
2019-03-09T13:24:46.266Z,11.80
2019-03-09T13:27:16.429Z,11.73
2019-03-09T13:29:46.696Z,11.67
2019-03-09T13:32:16.928Z,11.60
2019-03-09T13:34:49.193Z,11.30
2019-03-09T13:37:19.184Z,10.81
2019-03-09T13:39:49.478Z,10.13
2019-03-09T13:42:19.690Z,9.64
2019-03-09T13:44:51.835Z,9.31
2019-03-09T13:47:21.926Z,9.08
2019-03-09T13:49:52.208Z,8.94
2019-03-09T13:52:22.332Z,8.90
2019-03-09T13:54:52.628Z,8.87
2019-03-09T13:57:22.881Z,8.82
2019-03-09T13:59:53.140Z,8.80
2019-03-09T14:02:23.385Z,8.74
2019-03-09T14:04:53.782Z,8.68
2019-03-09T14:07:24.051Z,8.58
2019-03-09T14:09:54.250Z,8.41
2019-03-09T14:12:24.541Z,8.17
2019-03-09T14:14:59.288Z,7.99
2019-03-09T14:17:30.758Z,7.81
2019-03-09T14:20:01.045Z,7.67
2019-03-09T14:22:31.410Z,7.57
2019-03-09T14:25:02.635Z,7.56
2019-03-09T14:27:32.866Z,7.58
2019-03-09T14:30:03.251Z,7.68
2019-03-09T14:32:34.387Z,7.80
2019-03-09T14:35:05.251Z,7.93
2019-03-09T14:37:35.546Z,8.04
2019-03-09T14:40:07.908Z,8.14
2019-03-09T14:42:38.929Z,8.29
2019-03-09T14:45:13.875Z,8.42
2019-03-09T14:47:44.214Z,8.60
2019-03-09T14:50:16.123Z,8.96
2019-03-09T14:52:46.419Z,9.38
2019-03-09T14:55:16.734Z,9.60
2019-03-09T14:57:47.061Z,9.68
2019-03-09T15:00:22.336Z,9.72
2019-03-09T15:02:52.830Z,9.80
2019-03-09T15:05:23.316Z,9.88
2019-03-09T15:07:53.503Z,9.94
2019-03-09T15:10:23.687Z,10.01
2019-03-09T15:12:53.959Z,10.07
2019-03-09T15:15:24.234Z,10.14
2019-03-09T15:17:54.862Z,10.18
2019-03-09T15:20:25.295Z,10.19
2019-03-09T15:22:55.640Z,10.17
2019-03-09T15:25:25.821Z,10.09
2019-03-09T15:27:56.135Z,9.85
2019-03-09T15:30:26.270Z,9.43
2019-03-09T15:32:56.544Z,9.15
2019-03-09T15:35:26.741Z,8.94
2019-03-09T15:37:56.951Z,8.96
2019-03-09T15:40:27.407Z,9.00
2019-03-09T15:42:57.665Z,8.95
2019-03-09T15:45:27.941Z,8.91
2019-03-09T15:48:00.749Z,8.89
2019-03-09T15:50:30.998Z,8.94
2019-03-09T15:53:02.903Z,9.05
2019-03-09T15:55:33.314Z,9.02
2019-03-09T15:58:03.655Z,8.90
2019-03-09T16:00:33.964Z,8.90
2019-03-09T16:03:04.391Z,9.19
2019-03-09T16:05:34.705Z,9.42
2019-03-09T16:08:05.045Z,9.28
2019-03-09T16:10:35.452Z,8.88
2019-03-09T16:13:06.969Z,8.99
2019-03-09T16:15:37.160Z,9.03
2019-03-09T16:18:07.417Z,9.74
2019-03-09T16:20:37.753Z,10.01
2019-03-09T16:23:08.072Z,10.00
2019-03-09T16:25:38.331Z,9.71
2019-03-09T16:28:08.585Z,9.13
2019-03-09T16:30:38.708Z,8.68
2019-03-09T16:33:09.114Z,8.39
2019-03-09T16:35:40.812Z,8.16
2019-03-09T16:38:11.201Z,7.93
2019-03-09T16:40:41.599Z,7.73
2019-03-09T16:43:12.009Z,7.63
2019-03-09T16:45:42.283Z,7.52
2019-03-09T16:48:12.659Z,7.48
2019-03-09T16:50:43.033Z,7.46
2019-03-09T16:53:13.277Z,7.38
2019-03-09T16:55:43.569Z,7.29
2019-03-09T16:58:13.809Z,7.28
2019-03-09T17:00:43.974Z,7.24
2019-03-09T17:03:14.122Z,7.20
2019-03-09T17:05:44.574Z,7.15
2019-03-09T17:08:22.427Z,7.11
2019-03-09T17:10:52.761Z,7.05
2019-03-09T17:13:23.124Z,7.01
2019-03-09T17:15:53.352Z,6.98
2019-03-09T17:18:23.582Z,6.92
2019-03-09T17:20:56.793Z,6.89
2019-03-09T17:23:27.244Z,6.85
2019-03-09T17:25:57.881Z,6.79
2019-03-09T17:28:28.107Z,6.76
2019-03-09T17:30:58.315Z,6.72
2019-03-09T17:33:28.478Z,6.68
2019-03-09T17:35:58.653Z,6.61
2019-03-09T17:38:28.864Z,6.55
2019-03-09T17:41:01.424Z,6.46
2019-03-09T17:43:31.525Z,6.40
2019-03-09T17:46:01.679Z,6.35
2019-03-09T17:48:32.231Z,6.28
2019-03-09T17:51:02.350Z,6.20
2019-03-09T17:53:32.414Z,6.14
2019-03-09T17:56:02.641Z,6.09
2019-03-09T17:58:32.804Z,6.03
2019-03-09T18:01:02.854Z,5.98
2019-03-09T18:03:33.148Z,5.96
2019-03-09T18:06:03.480Z,5.94
2019-03-09T18:08:33.630Z,5.93
2019-03-09T18:11:06.705Z,5.92
2019-03-09T18:13:36.884Z,5.89
2019-03-09T18:16:07.170Z,5.89
2019-03-09T18:18:37.453Z,5.90
2019-03-09T18:21:08.092Z,5.92
2019-03-09T18:23:38.348Z,5.96
2019-03-09T18:26:08.547Z,5.93
2019-03-09T18:28:38.774Z,5.91
2019-03-09T18:31:08.888Z,5.88
2019-03-09T18:33:39.080Z,5.85
2019-03-09T18:36:09.256Z,5.83
2019-03-09T18:38:39.370Z,5.79
2019-03-09T18:41:09.519Z,5.80
2019-03-09T18:43:39.731Z,5.79
2019-03-09T18:46:09.950Z,5.78
2019-03-09T18:48:40.140Z,5.76
2019-03-09T18:51:10.345Z,5.74
2019-03-09T18:53:40.441Z,5.73
2019-03-09T18:56:10.657Z,5.72
2019-03-09T18:58:41.143Z,5.74
2019-03-09T19:01:11.628Z,5.74
2019-03-09T19:03:42.629Z,5.77
2019-03-09T19:06:13.204Z,5.78
2019-03-09T19:08:43.702Z,5.76
2019-03-09T19:11:14.632Z,5.72
2019-03-09T19:13:45.305Z,5.80
2019-03-09T19:16:15.768Z,5.82
2019-03-09T19:21:31.372Z,5.97
2019-03-09T19:24:01.499Z,5.91
2019-03-09T19:26:31.721Z,5.89
2019-03-09T19:29:01.991Z,5.88
2019-03-09T19:31:32.501Z,5.87
2019-03-09T19:34:03.043Z,5.85
2019-03-09T19:36:33.576Z,5.84
2019-03-09T19:39:04.784Z,5.82
2019-03-09T19:41:35.508Z,5.88
2019-03-09T19:44:07.194Z,5.87
2019-03-09T19:46:37.650Z,5.86
2019-03-09T19:49:08.073Z,5.84
2019-03-09T19:51:38.495Z,5.78
2019-03-09T19:54:08.997Z,5.80
2019-03-09T19:56:39.448Z,5.79
2019-03-09T19:59:09.854Z,5.80
2019-03-09T20:01:40.289Z,5.75
2019-03-09T20:04:10.660Z,5.77
2019-03-09T20:06:42.055Z,5.75
2019-03-09T20:09:12.596Z,5.77
2019-03-09T20:11:42.962Z,5.79
2019-03-09T20:14:13.380Z,5.75
2019-03-09T20:16:44.284Z,5.81
2019-03-09T20:19:14.813Z,5.83
2019-03-09T20:21:45.992Z,5.82
2019-03-09T20:24:16.750Z,5.83
2019-03-09T20:26:50.241Z,5.85
2019-03-09T20:29:20.600Z,5.85
2019-03-09T20:31:51.129Z,5.84
2019-03-09T20:34:21.572Z,5.86
2019-03-09T20:36:52.103Z,5.88
2019-03-09T20:39:22.650Z,5.90
2019-03-09T20:41:53.158Z,5.88
2019-03-09T20:44:25.836Z,5.89
2019-03-09T20:46:56.479Z,5.91
2019-03-09T20:49:27.746Z,5.91
2019-03-09T20:51:58.660Z,5.94
2019-03-09T20:54:29.205Z,5.96
2019-03-09T20:56:59.830Z,5.97
2019-03-09T20:59:30.414Z,5.96
2019-03-09T21:02:00.979Z,5.97
2019-03-09T21:04:31.376Z,5.99
2019-03-09T21:07:01.832Z,5.99
2019-03-09T21:09:32.743Z,5.98
2019-03-09T21:12:03.992Z,5.99
2019-03-09T21:14:34.465Z,6.00
2019-03-09T21:17:05.164Z,6.02
2019-03-09T21:19:35.634Z,5.98
2019-03-09T21:22:07.360Z,6.00
2019-03-09T21:24:37.901Z,6.02
2019-03-09T21:27:08.838Z,6.05
2019-03-09T21:32:08.496Z,6.20
2019-03-09T21:34:38.879Z,6.19
2019-03-09T21:37:09.570Z,6.24
2019-03-09T21:39:40.369Z,6.28
2019-03-09T21:42:10.909Z,6.29
2019-03-09T21:44:41.435Z,6.32
2019-03-09T21:47:11.929Z,6.33
2019-03-09T21:49:42.774Z,6.36
2019-03-09T21:52:13.397Z,6.38
2019-03-09T21:54:44.566Z,6.37
2019-03-09T21:57:15.891Z,6.41
2019-03-09T21:59:46.536Z,6.43
2019-03-09T22:02:16.999Z,6.42
2019-03-09T22:04:47.553Z,6.46
2019-03-09T22:07:17.839Z,6.50
2019-03-09T22:09:47.973Z,6.53
2019-03-09T22:12:18.055Z,6.55
2019-03-09T22:14:48.368Z,6.57
2019-03-09T22:17:18.695Z,6.59
2019-03-09T22:19:48.889Z,6.59
2019-03-09T22:22:19.073Z,6.62
2019-03-09T22:24:49.271Z,6.63
2019-03-09T22:27:19.494Z,6.68
2019-03-09T22:29:49.829Z,6.70
2019-03-09T22:32:20.049Z,6.72
2019-03-09T22:34:50.162Z,6.75
2019-03-09T22:37:20.416Z,6.75
2019-03-09T22:39:50.569Z,6.76
2019-03-09T22:42:20.758Z,6.78
2019-03-09T22:44:50.945Z,6.79
2019-03-09T22:47:21.225Z,6.78
2019-03-09T22:49:51.514Z,6.75
2019-03-09T22:52:21.661Z,6.75
2019-03-09T22:54:51.814Z,6.79
2019-03-09T22:57:22.050Z,6.81
2019-03-09T22:59:52.478Z,6.80
2019-03-09T23:02:22.721Z,6.80
2019-03-09T23:04:53.033Z,6.83
2019-03-09T23:07:23.338Z,6.87
2019-03-09T23:09:53.513Z,6.88
2019-03-09T23:12:23.680Z,6.89
2019-03-09T23:14:53.881Z,6.91
2019-03-09T23:17:24.080Z,6.92
2019-03-09T23:19:54.220Z,6.95
2019-03-09T23:22:24.359Z,6.97
2019-03-09T23:24:54.545Z,7.00
2019-03-09T23:27:24.662Z,7.02
2019-03-09T23:29:54.862Z,7.05
2019-03-09T23:32:25.068Z,7.07
2019-03-09T23:34:55.282Z,7.07
2019-03-09T23:37:25.407Z,7.06
2019-03-09T23:39:55.600Z,7.06
2019-03-09T23:42:25.672Z,7.08
2019-03-09T23:44:55.795Z,7.08
2019-03-09T23:47:25.946Z,7.09
2019-03-09T23:49:56.175Z,7.09
2019-03-09T23:52:26.327Z,7.11
2019-03-09T23:54:58.014Z,7.13
2019-03-09T23:57:28.211Z,7.13
2019-03-09T23:59:58.431Z,7.12
